sensor_id;sensor_type;location;lat;lon;timestamp;temperature;humidity
7684;DHT22;3884;48.616;12.872;2022-10-03T00:01:46;11.20;99.90
7684;DHT22;3884;48.616;12.872;2022-10-03T00:04:29;11.10;99.90
7684;DHT22;3884;48.616;12.872;2022-10-03T00:07:06;11.10;99.90
7684;DHT22;3884;48.616;12.872;2022-10-03T00:09:50;11.10;99.90
7684;DHT22;3884;48.616;12.872;2022-10-03T00:12:39;11.10;99.90
7684;DHT22;3884;48.616;12.872;2022-10-03T00:15:17;11.10;99.90
7684;DHT22;3884;48.616;12.872;2022-10-03T00:17:55;11.00;99.90
7684;DHT22;3884;48.616;12.872;2022-10-03T00:20:42;11.00;99.90
7684;DHT22;3884;48.616;12.872;2022-10-03T00:23:14;11.00;99.90
7684;DHT22;3884;48.616;12.872;2022-10-03T00:25:46;11.00;99.90
7684;DHT22;3884;48.616;12.872;2022-10-03T00:28:38;10.90;99.90
7684;DHT22;3884;48.616;12.872;2022-10-03T00:31:12;10.90;99.90
7684;DHT22;3884;48.616;12.872;2022-10-03T00:33:52;10.90;99.90
7684;DHT22;3884;48.616;12.872;2022-10-03T00:36:26;10.90;99.90
7684;DHT22;3884;48.616;12.872;2022-10-03T00:42:06;10.90;99.90
7684;DHT22;3884;48.616;12.872;2022-10-03T00:45:01;10.90;99.90
7684;DHT22;3884;48.616;12.872;2022-10-03T00:53:37;10.70;99.90
7684;DHT22;3884;48.616;12.872;2022-10-03T00:56:48;10.70;99.90
7684;DHT22;3884;48.616;12.872;2022-10-03T00:59:33;10.70;99.90
7684;DHT22;3884;48.616;12.872;2022-10-03T01:02:30;10.60;99.90
7684;DHT22;3884;48.616;12.872;2022-10-03T01:05:07;10.70;99.90
7684;DHT22;3884;48.616;12.872;2022-10-03T01:08:05;10.70;99.90
7684;DHT22;3884;48.616;12.872;2022-10-03T01:10:43;10.60;99.90
7684;DHT22;3884;48.616;12.872;2022-10-03T01:13:25;10.60;99.90
7684;DHT22;3884;48.616;12.872;2022-10-03T01:16:07;10.60;99.90
7684;DHT22;3884;48.616;12.872;2022-10-03T01:18:48;10.80;99.90
7684;DHT22;3884;48.616;12.872;2022-10-03T01:21:31;10.60;99.90
7684;DHT22;3884;48.616;12.872;2022-10-03T01:24:30;10.70;99.90
7684;DHT22;3884;48.616;12.872;2022-10-03T01:27:03;10.70;99.90
7684;DHT22;3884;48.616;12.872;2022-10-03T01:29:43;10.70;99.90
7684;DHT22;3884;48.616;12.872;2022-10-03T01:32:33;10.70;99.90
7684;DHT22;3884;48.616;12.872;2022-10-03T01:35:09;10.60;99.90
7684;DHT22;3884;48.616;12.872;2022-10-03T01:37:44;10.60;99.90
7684;DHT22;3884;48.616;12.872;2022-10-03T01:40:20;10.60;99.90
7684;DHT22;3884;48.616;12.872;2022-10-03T01:42:59;10.60;99.90
7684;DHT22;3884;48.616;12.872;2022-10-03T01:45:36;10.60;99.90
7684;DHT22;3884;48.616;12.872;2022-10-03T01:48:10;10.60;99.90
7684;DHT22;3884;48.616;12.872;2022-10-03T01:50:47;10.60;99.90
7684;DHT22;3884;48.616;12.872;2022-10-03T01:53:25;10.50;99.90
7684;DHT22;3884;48.616;12.872;2022-10-03T01:55:59;10.40;99.90
7684;DHT22;3884;48.616;12.872;2022-10-03T01:58:35;10.40;99.90
7684;DHT22;3884;48.616;12.872;2022-10-03T02:01:11;10.40;99.90
7684;DHT22;3884;48.616;12.872;2022-10-03T02:03:45;10.30;99.90
7684;DHT22;3884;48.616;12.872;2022-10-03T02:06:20;10.30;99.90
7684;DHT22;3884;48.616;12.872;2022-10-03T02:08:55;10.30;99.90
7684;DHT22;3884;48.616;12.872;2022-10-03T02:11:31;10.20;99.90
7684;DHT22;3884;48.616;12.872;2022-10-03T02:14:11;10.20;99.90
7684;DHT22;3884;48.616;12.872;2022-10-03T02:16:44;10.20;99.90
7684;DHT22;3884;48.616;12.872;2022-10-03T02:19:17;10.20;99.90
7684;DHT22;3884;48.616;12.872;2022-10-03T02:21:48;10.20;99.90
7684;DHT22;3884;48.616;12.872;2022-10-03T02:24:23;10.20;99.90
7684;DHT22;3884;48.616;12.872;2022-10-03T02:27:06;10.20;99.90
7684;DHT22;3884;48.616;12.872;2022-10-03T02:29:54;10.20;99.90
7684;DHT22;3884;48.616;12.872;2022-10-03T02:35:49;10.20;99.90
7684;DHT22;3884;48.616;12.872;2022-10-03T02:38:31;10.20;99.90
7684;DHT22;3884;48.616;12.872;2022-10-03T02:41:11;10.10;99.90
7684;DHT22;3884;48.616;12.872;2022-10-03T02:44:20;10.10;99.90
7684;DHT22;3884;48.616;12.872;2022-10-03T02:47:31;10.10;99.90
7684;DHT22;3884;48.616;12.872;2022-10-03T02:53:40;10.20;99.90
7684;DHT22;3884;48.616;12.872;2022-10-03T02:59:32;10.20;99.90
7684;DHT22;3884;48.616;12.872;2022-10-03T03:05:34;10.20;99.90
7684;DHT22;3884;48.616;12.872;2022-10-03T03:08:35;10.20;99.90
7684;DHT22;3884;48.616;12.872;2022-10-03T03:14:40;10.30;99.90
7684;DHT22;3884;48.616;12.872;2022-10-03T03:17:21;10.30;99.90
7684;DHT22;3884;48.616;12.872;2022-10-03T03:20:10;10.20;99.90
7684;DHT22;3884;48.616;12.872;2022-10-03T03:22:56;10.30;99.90
7684;DHT22;3884;48.616;12.872;2022-10-03T03:25:38;10.30;99.90
7684;DHT22;3884;48.616;12.872;2022-10-03T03:28:18;10.30;99.90
7684;DHT22;3884;48.616;12.872;2022-10-03T03:30:55;10.30;99.90
7684;DHT22;3884;48.616;12.872;2022-10-03T03:33:31;10.30;99.90
7684;DHT22;3884;48.616;12.872;2022-10-03T03:36:04;10.30;99.90
7684;DHT22;3884;48.616;12.872;2022-10-03T03:38:44;10.30;99.90
7684;DHT22;3884;48.616;12.872;2022-10-03T03:41:24;10.30;99.90
7684;DHT22;3884;48.616;12.872;2022-10-03T03:44:09;10.40;99.90
7684;DHT22;3884;48.616;12.872;2022-10-03T03:46:44;10.30;99.90
7684;DHT22;3884;48.616;12.872;2022-10-03T03:49:30;10.30;99.90
7684;DHT22;3884;48.616;12.872;2022-10-03T03:52:18;10.30;99.90
7684;DHT22;3884;48.616;12.872;2022-10-03T03:55:12;10.30;99.90
7684;DHT22;3884;48.616;12.872;2022-10-03T03:57:58;10.40;99.90
7684;DHT22;3884;48.616;12.872;2022-10-03T04:00:39;10.40;99.90
7684;DHT22;3884;48.616;12.872;2022-10-03T04:03:23;10.30;99.90
7684;DHT22;3884;48.616;12.872;2022-10-03T04:06:13;10.30;99.90
7684;DHT22;3884;48.616;12.872;2022-10-03T04:09:02;10.30;99.90
7684;DHT22;3884;48.616;12.872;2022-10-03T04:11:43;10.30;99.90
7684;DHT22;3884;48.616;12.872;2022-10-03T04:14:32;10.30;99.90
7684;DHT22;3884;48.616;12.872;2022-10-03T04:17:14;10.30;99.90
7684;DHT22;3884;48.616;12.872;2022-10-03T04:20:10;10.20;99.90
7684;DHT22;3884;48.616;12.872;2022-10-03T04:22:52;10.30;99.90
7684;DHT22;3884;48.616;12.872;2022-10-03T04:25:38;10.30;99.90
7684;DHT22;3884;48.616;12.872;2022-10-03T04:31:19;10.30;99.90
7684;DHT22;3884;48.616;12.872;2022-10-03T04:34:00;10.20;99.90
7684;DHT22;3884;48.616;12.872;2022-10-03T04:36:55;10.30;99.90
7684;DHT22;3884;48.616;12.872;2022-10-03T04:39:31;10.30;99.90
7684;DHT22;3884;48.616;12.872;2022-10-03T04:42:09;10.30;99.90
7684;DHT22;3884;48.616;12.872;2022-10-03T04:45:09;10.30;99.90
7684;DHT22;3884;48.616;12.872;2022-10-03T04:47:43;10.30;99.90
7684;DHT22;3884;48.616;12.872;2022-10-03T04:50:23;10.30;99.90
7684;DHT22;3884;48.616;12.872;2022-10-03T04:52:58;10.30;99.90
7684;DHT22;3884;48.616;12.872;2022-10-03T04:55:38;10.30;99.90
7684;DHT22;3884;48.616;12.872;2022-10-03T04:58:16;10.30;99.90
7684;DHT22;3884;48.616;12.872;2022-10-03T05:00:56;10.30;99.90
7684;DHT22;3884;48.616;12.872;2022-10-03T05:03:34;10.30;99.90
7684;DHT22;3884;48.616;12.872;2022-10-03T05:06:21;10.30;99.90
7684;DHT22;3884;48.616;12.872;2022-10-03T05:08:56;10.30;99.90
7684;DHT22;3884;48.616;12.872;2022-10-03T05:11:38;10.30;99.90
7684;DHT22;3884;48.616;12.872;2022-10-03T05:14:17;10.30;99.90
7684;DHT22;3884;48.616;12.872;2022-10-03T05:16:54;10.30;99.90
7684;DHT22;3884;48.616;12.872;2022-10-03T05:19:39;10.30;99.90
7684;DHT22;3884;48.616;12.872;2022-10-03T05:22:16;10.30;99.90
7684;DHT22;3884;48.616;12.872;2022-10-03T05:24:55;10.30;99.90
7684;DHT22;3884;48.616;12.872;2022-10-03T05:27:29;10.30;99.90
7684;DHT22;3884;48.616;12.872;2022-10-03T05:30:02;10.30;99.90
7684;DHT22;3884;48.616;12.872;2022-10-03T05:32:39;10.30;99.90
7684;DHT22;3884;48.616;12.872;2022-10-03T05:35:23;10.40;99.90
7684;DHT22;3884;48.616;12.872;2022-10-03T05:38:12;10.40;99.90
7684;DHT22;3884;48.616;12.872;2022-10-03T05:40:46;10.40;99.90
7684;DHT22;3884;48.616;12.872;2022-10-03T05:43:25;10.40;99.90
7684;DHT22;3884;48.616;12.872;2022-10-03T05:45:59;10.40;99.90
7684;DHT22;3884;48.616;12.872;2022-10-03T05:48:36;10.50;99.90
7684;DHT22;3884;48.616;12.872;2022-10-03T05:54:32;10.40;99.90
7684;DHT22;3884;48.616;12.872;2022-10-03T05:57:24;10.50;99.90
7684;DHT22;3884;48.616;12.872;2022-10-03T06:00:09;10.50;99.90
7684;DHT22;3884;48.616;12.872;2022-10-03T06:06:17;10.50;99.90
7684;DHT22;3884;48.616;12.872;2022-10-03T06:09:11;10.60;99.90
7684;DHT22;3884;48.616;12.872;2022-10-03T06:11:57;10.60;99.90
7684;DHT22;3884;48.616;12.872;2022-10-03T06:14:37;10.60;99.90
7684;DHT22;3884;48.616;12.872;2022-10-03T06:17:22;10.60;99.90
7684;DHT22;3884;48.616;12.872;2022-10-03T06:19:57;10.60;99.90
7684;DHT22;3884;48.616;12.872;2022-10-03T06:22:49;10.60;99.90
7684;DHT22;3884;48.616;12.872;2022-10-03T06:25:49;10.60;99.90
7684;DHT22;3884;48.616;12.872;2022-10-03T06:28:41;10.60;99.90
7684;DHT22;3884;48.616;12.872;2022-10-03T06:34:44;10.70;99.90
7684;DHT22;3884;48.616;12.872;2022-10-03T06:37:50;10.70;99.90
7684;DHT22;3884;48.616;12.872;2022-10-03T06:40:59;10.70;99.90
7684;DHT22;3884;48.616;12.872;2022-10-03T06:43:57;10.80;99.90
7684;DHT22;3884;48.616;12.872;2022-10-03T06:46:51;10.80;99.90
7684;DHT22;3884;48.616;12.872;2022-10-03T06:49:53;10.80;99.90
7684;DHT22;3884;48.616;12.872;2022-10-03T06:52:43;10.80;99.90
7684;DHT22;3884;48.616;12.872;2022-10-03T06:58:40;10.90;99.90
7684;DHT22;3884;48.616;12.872;2022-10-03T07:04:39;10.90;99.90
7684;DHT22;3884;48.616;12.872;2022-10-03T07:13:38;10.90;99.90
7684;DHT22;3884;48.616;12.872;2022-10-03T07:16:40;10.90;99.90
7684;DHT22;3884;48.616;12.872;2022-10-03T07:19:46;11.00;99.90
7684;DHT22;3884;48.616;12.872;2022-10-03T07:25:42;11.00;99.90
7684;DHT22;3884;48.616;12.872;2022-10-03T07:28:53;11.00;99.90
7684;DHT22;3884;48.616;12.872;2022-10-03T07:31:37;11.10;99.90
7684;DHT22;3884;48.616;12.872;2022-10-03T07:34:24;11.10;99.90
7684;DHT22;3884;48.616;12.872;2022-10-03T07:37:20;11.10;99.90
7684;DHT22;3884;48.616;12.872;2022-10-03T07:49:28;11.70;99.90
7684;DHT22;3884;48.616;12.872;2022-10-03T07:55:28;11.60;99.90
7684;DHT22;3884;48.616;12.872;2022-10-03T07:58:24;11.70;99.90
7684;DHT22;3884;48.616;12.872;2022-10-03T08:04:28;11.80;99.90
7684;DHT22;3884;48.616;12.872;2022-10-03T08:07:11;11.80;99.90
7684;DHT22;3884;48.616;12.872;2022-10-03T08:09:58;11.80;99.90
7684;DHT22;3884;48.616;12.872;2022-10-03T08:12:59;12.00;99.90
7684;DHT22;3884;48.616;12.872;2022-10-03T08:15:52;12.00;99.90
7684;DHT22;3884;48.616;12.872;2022-10-03T08:19:02;12.00;99.90
7684;DHT22;3884;48.616;12.872;2022-10-03T08:21:42;12.10;99.90
7684;DHT22;3884;48.616;12.872;2022-10-03T08:24:28;12.00;99.90
7684;DHT22;3884;48.616;12.872;2022-10-03T08:27:30;12.10;99.90
7684;DHT22;3884;48.616;12.872;2022-10-03T08:30:23;12.10;99.90
7684;DHT22;3884;48.616;12.872;2022-10-03T08:36:08;12.10;99.90
7684;DHT22;3884;48.616;12.872;2022-10-03T08:39:01;12.10;99.90
7684;DHT22;3884;48.616;12.872;2022-10-03T08:44:58;12.10;99.90
7684;DHT22;3884;48.616;12.872;2022-10-03T08:48:01;12.10;99.90
7684;DHT22;3884;48.616;12.872;2022-10-03T08:50:56;12.10;99.90
7684;DHT22;3884;48.616;12.872;2022-10-03T08:56:45;12.10;99.90
7684;DHT22;3884;48.616;12.872;2022-10-03T09:02:50;12.30;99.90
7684;DHT22;3884;48.616;12.872;2022-10-03T09:08:54;12.40;99.90
7684;DHT22;3884;48.616;12.872;2022-10-03T09:21:13;12.50;99.90
7684;DHT22;3884;48.616;12.872;2022-10-03T09:24:26;12.50;99.90
7684;DHT22;3884;48.616;12.872;2022-10-03T09:27:28;12.50;99.90
7684;DHT22;3884;48.616;12.872;2022-10-03T09:30:20;12.50;99.90
7684;DHT22;3884;48.616;12.872;2022-10-03T09:42:58;12.80;54.20
7684;DHT22;3884;48.616;12.872;2022-10-03T09:48:59;12.80;99.90
7684;DHT22;3884;48.616;12.872;2022-10-03T09:51:40;12.90;99.90
7684;DHT22;3884;48.616;12.872;2022-10-03T10:00:21;13.00;1.00
7684;DHT22;3884;48.616;12.872;2022-10-03T10:08:57;12.80;1.00
7684;DHT22;3884;48.616;12.872;2022-10-03T10:11:54;12.90;1.00
7684;DHT22;3884;48.616;12.872;2022-10-03T10:14:56;12.90;1.00
7684;DHT22;3884;48.616;12.872;2022-10-03T10:17:56;12.90;1.00
7684;DHT22;3884;48.616;12.872;2022-10-03T10:23:44;13.00;1.00
7684;DHT22;3884;48.616;12.872;2022-10-03T10:26:50;13.10;1.00
7684;DHT22;3884;48.616;12.872;2022-10-03T10:29:47;13.20;1.00
7684;DHT22;3884;48.616;12.872;2022-10-03T10:35:46;13.40;1.00
7684;DHT22;3884;48.616;12.872;2022-10-03T10:38:28;13.50;1.00
7684;DHT22;3884;48.616;12.872;2022-10-03T10:44:35;13.40;99.90
7684;DHT22;3884;48.616;12.872;2022-10-03T10:47:26;13.40;1.00
7684;DHT22;3884;48.616;12.872;2022-10-03T10:50:24;13.50;99.90
7684;DHT22;3884;48.616;12.872;2022-10-03T11:05:37;14.00;1.00
7684;DHT22;3884;48.616;12.872;2022-10-03T11:08:49;14.10;1.00
7684;DHT22;3884;48.616;12.872;2022-10-03T11:17:53;13.80;99.90
7684;DHT22;3884;48.616;12.872;2022-10-03T11:20:54;13.80;1.00
7684;DHT22;3884;48.616;12.872;2022-10-03T11:23:52;13.90;31.50
7684;DHT22;3884;48.616;12.872;2022-10-03T11:29:56;14.10;1.00
7684;DHT22;3884;48.616;12.872;2022-10-03T11:35:51;14.00;1.00
7684;DHT22;3884;48.616;12.872;2022-10-03T11:38:23;14.00;1.00
7684;DHT22;3884;48.616;12.872;2022-10-03T11:40:59;13.80;99.90
7684;DHT22;3884;48.616;12.872;2022-10-03T11:46:35;13.80;99.90
7684;DHT22;3884;48.616;12.872;2022-10-03T11:49:25;13.70;1.00
7684;DHT22;3884;48.616;12.872;2022-10-03T11:52:05;13.60;9.60
7684;DHT22;3884;48.616;12.872;2022-10-03T11:54:39;13.80;99.90
7684;DHT22;3884;48.616;12.872;2022-10-03T11:57:11;14.00;99.90
7684;DHT22;3884;48.616;12.872;2022-10-03T11:59:57;14.30;99.90
7684;DHT22;3884;48.616;12.872;2022-10-03T12:03:00;14.40;1.00
7684;DHT22;3884;48.616;12.872;2022-10-03T12:05:42;14.30;1.00
7684;DHT22;3884;48.616;12.872;2022-10-03T12:08:20;14.30;99.90
7684;DHT22;3884;48.616;12.872;2022-10-03T12:11:09;14.30;1.00
7684;DHT22;3884;48.616;12.872;2022-10-03T12:13:48;14.30;1.00
7684;DHT22;3884;48.616;12.872;2022-10-03T12:16:21;14.40;1.00
7684;DHT22;3884;48.616;12.872;2022-10-03T12:18:56;14.30;1.00
7684;DHT22;3884;48.616;12.872;2022-10-03T12:21:35;14.40;99.90
7684;DHT22;3884;48.616;12.872;2022-10-03T12:24:22;14.50;1.00
7684;DHT22;3884;48.616;12.872;2022-10-03T12:26:54;14.40;1.00
7684;DHT22;3884;48.616;12.872;2022-10-03T12:29:26;14.30;99.90
7684;DHT22;3884;48.616;12.872;2022-10-03T12:32:06;14.10;54.20
7684;DHT22;3884;48.616;12.872;2022-10-03T12:34:41;14.20;1.00
7684;DHT22;3884;48.616;12.872;2022-10-03T12:37:45;14.20;1.00
7684;DHT22;3884;48.616;12.872;2022-10-03T12:40:20;14.10;1.00
7684;DHT22;3884;48.616;12.872;2022-10-03T12:43:01;14.20;1.00
7684;DHT22;3884;48.616;12.872;2022-10-03T12:45:33;14.20;1.00
7684;DHT22;3884;48.616;12.872;2022-10-03T12:48:33;14.20;99.90
7684;DHT22;3884;48.616;12.872;2022-10-03T12:51:14;14.20;1.00
7684;DHT22;3884;48.616;12.872;2022-10-03T12:53:53;14.20;1.00
7684;DHT22;3884;48.616;12.872;2022-10-03T12:56:32;14.10;1.00
7684;DHT22;3884;48.616;12.872;2022-10-03T12:59:10;14.00;99.90
7684;DHT22;3884;48.616;12.872;2022-10-03T13:01:52;13.90;99.90
7684;DHT22;3884;48.616;12.872;2022-10-03T13:04:31;14.00;1.00
7684;DHT22;3884;48.616;12.872;2022-10-03T13:07:13;13.90;99.90
7684;DHT22;3884;48.616;12.872;2022-10-03T13:10:10;13.90;99.90
7684;DHT22;3884;48.616;12.872;2022-10-03T13:12:44;13.90;65.80
7684;DHT22;3884;48.616;12.872;2022-10-03T13:15:41;13.90;99.90
7684;DHT22;3884;48.616;12.872;2022-10-03T13:18:18;13.80;1.00
7684;DHT22;3884;48.616;12.872;2022-10-03T13:20:55;13.90;99.90
7684;DHT22;3884;48.616;12.872;2022-10-03T13:23:33;14.00;1.00
7684;DHT22;3884;48.616;12.872;2022-10-03T13:26:09;14.10;1.00
7684;DHT22;3884;48.616;12.872;2022-10-03T13:28:54;14.30;1.00
7684;DHT22;3884;48.616;12.872;2022-10-03T13:31:26;14.30;1.00
7684;DHT22;3884;48.616;12.872;2022-10-03T13:33:59;14.60;1.00
7684;DHT22;3884;48.616;12.872;2022-10-03T13:36:31;14.50;1.00
7684;DHT22;3884;48.616;12.872;2022-10-03T13:39:11;14.70;99.90
7684;DHT22;3884;48.616;12.872;2022-10-03T13:41:52;14.50;1.00
7684;DHT22;3884;48.616;12.872;2022-10-03T13:44:34;14.40;1.00
7684;DHT22;3884;48.616;12.872;2022-10-03T13:47:13;14.30;99.90
7684;DHT22;3884;48.616;12.872;2022-10-03T13:49:50;14.30;99.90
7684;DHT22;3884;48.616;12.872;2022-10-03T13:52:22;14.20;99.90
7684;DHT22;3884;48.616;12.872;2022-10-03T13:55:12;14.20;99.90
7684;DHT22;3884;48.616;12.872;2022-10-03T13:57:45;14.20;64.60
7684;DHT22;3884;48.616;12.872;2022-10-03T14:00:19;14.10;99.90
7684;DHT22;3884;48.616;12.872;2022-10-03T14:03:03;14.00;1.00
7684;DHT22;3884;48.616;12.872;2022-10-03T14:05:58;14.00;1.00
7684;DHT22;3884;48.616;12.872;2022-10-03T14:08:40;13.90;1.00
7684;DHT22;3884;48.616;12.872;2022-10-03T14:11:21;14.00;1.00
7684;DHT22;3884;48.616;12.872;2022-10-03T14:14:26;14.00;55.10
7684;DHT22;3884;48.616;12.872;2022-10-03T14:17:04;14.00;4.30
7684;DHT22;3884;48.616;12.872;2022-10-03T14:19:40;14.00;99.90
7684;DHT22;3884;48.616;12.872;2022-10-03T14:22:36;14.00;99.90
7684;DHT22;3884;48.616;12.872;2022-10-03T14:25:16;13.90;99.90
7684;DHT22;3884;48.616;12.872;2022-10-03T14:27:50;14.00;99.90
7684;DHT22;3884;48.616;12.872;2022-10-03T14:30:20;13.90;84.40
7684;DHT22;3884;48.616;12.872;2022-10-03T14:33:09;13.80;92.70
7684;DHT22;3884;48.616;12.872;2022-10-03T14:35:52;13.80;1.00
7684;DHT22;3884;48.616;12.872;2022-10-03T14:38:35;13.80;99.90
7684;DHT22;3884;48.616;12.872;2022-10-03T14:41:39;13.80;1.00
7684;DHT22;3884;48.616;12.872;2022-10-03T14:44:10;13.80;1.00
7684;DHT22;3884;48.616;12.872;2022-10-03T14:46:43;13.70;1.00
7684;DHT22;3884;48.616;12.872;2022-10-03T14:49:18;13.80;32.10
7684;DHT22;3884;48.616;12.872;2022-10-03T14:51:49;13.80;99.90
7684;DHT22;3884;48.616;12.872;2022-10-03T14:54:21;13.80;94.40
7684;DHT22;3884;48.616;12.872;2022-10-03T14:56:49;13.70;1.00
7684;DHT22;3884;48.616;12.872;2022-10-03T14:59:20;13.80;99.90
7684;DHT22;3884;48.616;12.872;2022-10-03T15:01:50;13.80;1.00
7684;DHT22;3884;48.616;12.872;2022-10-03T15:04:26;13.70;1.00
7684;DHT22;3884;48.616;12.872;2022-10-03T15:06:55;13.80;1.00
7684;DHT22;3884;48.616;12.872;2022-10-03T15:09:29;13.70;54.20
7684;DHT22;3884;48.616;12.872;2022-10-03T15:12:01;13.70;1.00
7684;DHT22;3884;48.616;12.872;2022-10-03T15:14:33;13.80;99.90
7684;DHT22;3884;48.616;12.872;2022-10-03T15:17:04;13.80;99.90
7684;DHT22;3884;48.616;12.872;2022-10-03T15:19:36;13.80;1.00
7684;DHT22;3884;48.616;12.872;2022-10-03T15:22:20;13.80;1.00
7684;DHT22;3884;48.616;12.872;2022-10-03T15:24:50;13.60;1.00
7684;DHT22;3884;48.616;12.872;2022-10-03T15:27:21;13.70;2.70
7684;DHT22;3884;48.616;12.872;2022-10-03T15:29:52;13.80;99.90
7684;DHT22;3884;48.616;12.872;2022-10-03T15:32:23;13.70;1.00
7684;DHT22;3884;48.616;12.872;2022-10-03T15:34:56;13.70;1.00
7684;DHT22;3884;48.616;12.872;2022-10-03T15:37:28;13.60;1.00
7684;DHT22;3884;48.616;12.872;2022-10-03T15:40:02;13.60;1.00
7684;DHT22;3884;48.616;12.872;2022-10-03T15:42:30;13.60;1.00
7684;DHT22;3884;48.616;12.872;2022-10-03T15:45:01;13.60;99.90
7684;DHT22;3884;48.616;12.872;2022-10-03T15:47:31;13.50;99.90
7684;DHT22;3884;48.616;12.872;2022-10-03T15:50:05;13.60;1.00
7684;DHT22;3884;48.616;12.872;2022-10-03T15:52:37;13.60;1.00
7684;DHT22;3884;48.616;12.872;2022-10-03T15:55:12;13.50;1.00
7684;DHT22;3884;48.616;12.872;2022-10-03T15:57:45;13.40;1.00
7684;DHT22;3884;48.616;12.872;2022-10-03T16:00:21;13.30;1.00
7684;DHT22;3884;48.616;12.872;2022-10-03T16:02:55;13.20;1.00
7684;DHT22;3884;48.616;12.872;2022-10-03T16:05:24;13.10;1.00
7684;DHT22;3884;48.616;12.872;2022-10-03T16:07:56;13.00;1.00
7684;DHT22;3884;48.616;12.872;2022-10-03T16:10:28;12.90;1.00
7684;DHT22;3884;48.616;12.872;2022-10-03T16:13:00;12.80;1.00
7684;DHT22;3884;48.616;12.872;2022-10-03T16:15:39;12.80;1.00
7684;DHT22;3884;48.616;12.872;2022-10-03T16:18:35;12.60;1.00
7684;DHT22;3884;48.616;12.872;2022-10-03T16:21:00;12.50;1.00
7684;DHT22;3884;48.616;12.872;2022-10-03T16:23:31;12.50;1.00
7684;DHT22;3884;48.616;12.872;2022-10-03T16:26:03;12.40;1.00
7684;DHT22;3884;48.616;12.872;2022-10-03T16:28:35;12.30;1.00
7684;DHT22;3884;48.616;12.872;2022-10-03T16:31:05;12.00;1.00
7684;DHT22;3884;48.616;12.872;2022-10-03T16:33:38;11.90;99.90
7684;DHT22;3884;48.616;12.872;2022-10-03T16:36:09;11.90;99.90
7684;DHT22;3884;48.616;12.872;2022-10-03T16:38:44;11.80;99.90
7684;DHT22;3884;48.616;12.872;2022-10-03T16:41:18;11.70;99.90
7684;DHT22;3884;48.616;12.872;2022-10-03T16:43:54;11.60;99.90
7684;DHT22;3884;48.616;12.872;2022-10-03T16:46:23;11.60;99.90
7684;DHT22;3884;48.616;12.872;2022-10-03T16:48:53;11.50;99.90
7684;DHT22;3884;48.616;12.872;2022-10-03T16:51:44;11.40;99.90
7684;DHT22;3884;48.616;12.872;2022-10-03T16:54:16;11.20;99.90
7684;DHT22;3884;48.616;12.872;2022-10-03T16:56:46;11.20;99.90
7684;DHT22;3884;48.616;12.872;2022-10-03T16:59:18;11.20;99.90
7684;DHT22;3884;48.616;12.872;2022-10-03T17:01:49;11.10;99.90
7684;DHT22;3884;48.616;12.872;2022-10-03T17:04:21;11.00;99.90
7684;DHT22;3884;48.616;12.872;2022-10-03T17:06:51;10.90;99.90
7684;DHT22;3884;48.616;12.872;2022-10-03T17:09:26;10.90;99.90
7684;DHT22;3884;48.616;12.872;2022-10-03T17:11:56;10.80;99.90
7684;DHT22;3884;48.616;12.872;2022-10-03T17:14:24;10.80;99.90
7684;DHT22;3884;48.616;12.872;2022-10-03T17:16:57;10.80;99.90
7684;DHT22;3884;48.616;12.872;2022-10-03T17:19:32;10.80;99.90
7684;DHT22;3884;48.616;12.872;2022-10-03T17:22:06;10.80;99.90
7684;DHT22;3884;48.616;12.872;2022-10-03T17:24:42;10.70;99.90
7684;DHT22;3884;48.616;12.872;2022-10-03T17:27:18;10.70;1.00
7684;DHT22;3884;48.616;12.872;2022-10-03T17:29:51;10.50;96.00
7684;DHT22;3884;48.616;12.872;2022-10-03T17:32:23;10.20;99.90
7684;DHT22;3884;48.616;12.872;2022-10-03T17:34:55;10.20;99.90
7684;DHT22;3884;48.616;12.872;2022-10-03T17:38:00;10.10;99.90
7684;DHT22;3884;48.616;12.872;2022-10-03T17:40:48;10.00;99.90
7684;DHT22;3884;48.616;12.872;2022-10-03T17:43:21;10.00;99.90
7684;DHT22;3884;48.616;12.872;2022-10-03T17:45:57;9.70;99.90
7684;DHT22;3884;48.616;12.872;2022-10-03T17:48:34;9.70;99.90
7684;DHT22;3884;48.616;12.872;2022-10-03T17:54:00;9.60;99.90
7684;DHT22;3884;48.616;12.872;2022-10-03T17:56:30;9.50;99.90
7684;DHT22;3884;48.616;12.872;2022-10-03T17:59:02;9.40;99.90
7684;DHT22;3884;48.616;12.872;2022-10-03T18:01:34;9.30;99.90
7684;DHT22;3884;48.616;12.872;2022-10-03T18:04:04;9.30;99.90
7684;DHT22;3884;48.616;12.872;2022-10-03T18:06:47;9.30;99.90
7684;DHT22;3884;48.616;12.872;2022-10-03T18:09:29;9.10;99.90
7684;DHT22;3884;48.616;12.872;2022-10-03T18:12:07;9.10;99.90
7684;DHT22;3884;48.616;12.872;2022-10-03T18:14:49;9.10;99.90
7684;DHT22;3884;48.616;12.872;2022-10-03T18:17:30;9.10;99.90
7684;DHT22;3884;48.616;12.872;2022-10-03T18:20:18;9.20;99.90
7684;DHT22;3884;48.616;12.872;2022-10-03T18:22:57;9.20;99.90
7684;DHT22;3884;48.616;12.872;2022-10-03T18:25:29;9.10;99.90
7684;DHT22;3884;48.616;12.872;2022-10-03T18:28:18;9.10;99.90
7684;DHT22;3884;48.616;12.872;2022-10-03T18:30:50;9.10;99.90
7684;DHT22;3884;48.616;12.872;2022-10-03T18:33:21;9.00;99.90
7684;DHT22;3884;48.616;12.872;2022-10-03T18:35:49;8.90;99.90
7684;DHT22;3884;48.616;12.872;2022-10-03T18:38:19;8.90;99.90
7684;DHT22;3884;48.616;12.872;2022-10-03T18:40:53;8.90;99.90
7684;DHT22;3884;48.616;12.872;2022-10-03T18:43:25;8.80;99.90
7684;DHT22;3884;48.616;12.872;2022-10-03T18:45:54;8.70;99.90
7684;DHT22;3884;48.616;12.872;2022-10-03T18:48:30;8.50;99.90
7684;DHT22;3884;48.616;12.872;2022-10-03T18:51:05;8.30;99.90
7684;DHT22;3884;48.616;12.872;2022-10-03T18:53:38;8.30;99.90
7684;DHT22;3884;48.616;12.872;2022-10-03T18:56:11;8.40;99.90
7684;DHT22;3884;48.616;12.872;2022-10-03T18:58:42;8.30;99.90
7684;DHT22;3884;48.616;12.872;2022-10-03T19:01:16;8.40;99.90
7684;DHT22;3884;48.616;12.872;2022-10-03T19:03:48;8.50;99.90
7684;DHT22;3884;48.616;12.872;2022-10-03T19:06:20;8.60;99.90
7684;DHT22;3884;48.616;12.872;2022-10-03T19:08:50;8.50;99.90
7684;DHT22;3884;48.616;12.872;2022-10-03T19:11:24;8.40;99.90
7684;DHT22;3884;48.616;12.872;2022-10-03T19:13:58;8.40;99.90
7684;DHT22;3884;48.616;12.872;2022-10-03T19:16:55;8.40;99.90
7684;DHT22;3884;48.616;12.872;2022-10-03T19:19:27;8.40;99.90
7684;DHT22;3884;48.616;12.872;2022-10-03T19:22:01;8.20;99.90
7684;DHT22;3884;48.616;12.872;2022-10-03T19:24:31;8.30;99.90
7684;DHT22;3884;48.616;12.872;2022-10-03T19:27:02;8.30;99.90
7684;DHT22;3884;48.616;12.872;2022-10-03T19:29:33;8.20;99.90
7684;DHT22;3884;48.616;12.872;2022-10-03T19:32:04;8.20;99.90
7684;DHT22;3884;48.616;12.872;2022-10-03T19:34:35;8.20;99.90
7684;DHT22;3884;48.616;12.872;2022-10-03T19:37:06;8.20;99.90
7684;DHT22;3884;48.616;12.872;2022-10-03T19:39:37;8.20;99.90
7684;DHT22;3884;48.616;12.872;2022-10-03T19:42:21;8.20;99.90
7684;DHT22;3884;48.616;12.872;2022-10-03T19:44:54;8.20;99.90
7684;DHT22;3884;48.616;12.872;2022-10-03T19:47:26;8.20;99.90
7684;DHT22;3884;48.616;12.872;2022-10-03T19:50:02;8.10;99.90
7684;DHT22;3884;48.616;12.872;2022-10-03T19:52:31;8.10;99.90
7684;DHT22;3884;48.616;12.872;2022-10-03T19:55:03;8.10;99.90
7684;DHT22;3884;48.616;12.872;2022-10-03T19:57:50;8.00;99.90
7684;DHT22;3884;48.616;12.872;2022-10-03T20:00:30;7.90;99.90
7684;DHT22;3884;48.616;12.872;2022-10-03T20:03:09;7.90;99.90